createdAt,value
2022-09-12T00:02:16.030Z,13.02
2022-09-12T00:04:42.715Z,12.60
2022-09-12T00:07:09.550Z,12.52
2022-09-12T00:09:36.188Z,12.80
2022-09-12T00:12:02.851Z,12.18
2022-09-12T00:14:29.547Z,11.75
2022-09-12T00:17:00.167Z,12.30
2022-09-12T00:19:28.730Z,12.13
2022-09-12T00:21:55.564Z,12.38
2022-09-12T00:24:22.406Z,11.30
2022-09-12T00:26:49.138Z,12.45
2022-09-12T00:29:17.911Z,11.82
2022-09-12T00:31:44.811Z,10.80
2022-09-12T00:34:11.781Z,12.77
2022-09-12T00:36:39.240Z,12.73
2022-09-12T00:39:06.697Z,11.55
2022-09-12T00:41:38.930Z,12.95
2022-09-12T00:44:24.154Z,13.48
2022-09-12T00:47:14.175Z,12.75
2022-09-12T00:49:52.060Z,11.38
2022-09-12T00:52:34.313Z,12.98
2022-09-12T00:55:25.066Z,12.07
2022-09-12T00:58:04.361Z,12.23
2022-09-12T01:00:30.972Z,12.13
2022-09-12T01:03:02.969Z,12.82
2022-09-12T01:05:30.902Z,11.85
2022-09-12T01:07:57.552Z,11.93
2022-09-12T01:10:24.712Z,11.77
2022-09-12T01:12:51.373Z,15.60
2022-09-12T01:15:18.208Z,11.80
2022-09-12T01:18:11.377Z,12.07
2022-09-12T01:20:46.324Z,12.55
2022-09-12T01:23:39.960Z,11.63
2022-09-12T01:26:46.119Z,12.20
2022-09-12T01:29:40.697Z,12.73
2022-09-12T01:32:10.027Z,11.98
2022-09-12T01:34:54.311Z,12.57
2022-09-12T01:37:34.123Z,12.55
2022-09-12T01:40:01.321Z,13.57
2022-09-12T01:42:33.734Z,13.10
2022-09-12T01:45:10.342Z,11.38
2022-09-12T01:47:41.888Z,11.98
2022-09-12T01:50:17.983Z,12.88
2022-09-12T01:52:52.200Z,11.88
2022-09-12T01:55:28.612Z,11.65
2022-09-12T01:58:26.889Z,12.80
2022-09-12T02:01:11.349Z,11.35
2022-09-12T02:03:45.008Z,12.05
2022-09-12T02:06:23.651Z,11.88
2022-09-12T02:08:55.888Z,12.68
2022-09-12T02:16:11.980Z,10.63
2022-09-12T02:18:45.721Z,11.60
2022-09-12T02:21:13.065Z,11.27
2022-09-12T02:24:09.871Z,11.57
2022-09-12T02:26:43.871Z,11.25
2022-09-12T02:29:10.664Z,13.85
2022-09-12T02:31:40.652Z,14.27
2022-09-12T02:34:22.586Z,11.85
2022-09-12T02:37:01.011Z,14.18
2022-09-12T02:39:28.003Z,14.10
2022-09-12T02:41:55.738Z,13.30
2022-09-12T02:44:24.591Z,14.50
2022-09-12T02:46:54.528Z,13.18
2022-09-12T02:49:21.432Z,12.68
2022-09-12T02:51:48.757Z,14.95
2022-09-12T02:54:40.125Z,12.50
2022-09-12T02:57:19.521Z,14.15
2022-09-12T02:59:50.613Z,11.88
2022-09-12T03:02:25.023Z,14.13
2022-09-12T03:05:08.757Z,12.35
2022-09-12T03:07:54.517Z,14.38
2022-09-12T03:10:30.959Z,12.13
2022-09-12T03:13:21.750Z,12.48
2022-09-12T03:16:00.346Z,12.85
2022-09-12T03:19:19.268Z,13.45
2022-09-12T03:22:13.398Z,13.35
2022-09-12T03:24:58.144Z,12.48
2022-09-12T03:27:29.663Z,11.90
2022-09-12T03:29:57.543Z,11.77
2022-09-12T03:32:44.486Z,12.30
2022-09-12T03:35:11.876Z,11.95
2022-09-12T03:42:08.823Z,11.57
2022-09-12T03:45:53.051Z,10.93
2022-09-12T03:48:19.708Z,10.48
2022-09-12T03:50:46.579Z,10.85
2022-09-12T03:53:41.603Z,11.50
2022-09-12T03:56:10.042Z,10.07
2022-09-12T03:58:37.243Z,12.18
2022-09-12T04:01:12.724Z,11.07
2022-09-12T04:03:43.222Z,10.43
2022-09-12T04:06:14.644Z,11.23
2022-09-12T04:08:43.012Z,12.10
2022-09-12T04:11:13.142Z,10.93
2022-09-12T04:13:41.493Z,10.88
2022-09-12T04:16:08.667Z,11.50
2022-09-12T04:18:36.490Z,12.63
2022-09-12T04:21:11.941Z,13.35
2022-09-12T04:23:38.645Z,13.10
2022-09-12T04:26:06.446Z,12.90
2022-09-12T04:28:34.419Z,13.98
2022-09-12T04:31:10.005Z,13.75
2022-09-12T04:33:36.959Z,14.05
2022-09-12T04:36:08.781Z,13.35
2022-09-12T04:38:35.938Z,13.75
2022-09-12T04:41:19.852Z,14.65
2022-09-12T04:43:47.681Z,12.93
2022-09-12T04:46:16.891Z,15.23
2022-09-12T04:48:43.893Z,19.30
2022-09-12T04:51:14.381Z,19.98
2022-09-12T04:53:41.994Z,21.70
2022-09-12T04:56:10.606Z,22.63
2022-09-12T04:58:38.180Z,21.38
2022-09-12T05:01:09.495Z,21.50
2022-09-12T05:03:38.923Z,22.77
2022-09-12T05:06:07.661Z,17.73
2022-09-12T05:08:37.661Z,15.80
2022-09-12T05:11:06.813Z,15.55
2022-09-12T05:13:33.913Z,15.13
2022-09-12T05:16:02.126Z,15.15
2022-09-12T05:18:29.083Z,15.55
2022-09-12T05:21:02.095Z,16.27
2022-09-12T05:25:57.521Z,13.40
2022-09-12T05:28:25.865Z,14.68
2022-09-12T05:31:13.065Z,13.20
2022-09-12T05:33:41.462Z,14.45
2022-09-12T05:36:17.724Z,14.90
2022-09-12T05:38:45.128Z,14.43
2022-09-12T05:41:19.873Z,16.45
2022-09-12T05:43:57.430Z,16.30
2022-09-12T05:46:29.461Z,16.05
2022-09-12T05:48:58.281Z,16.35
2022-09-12T05:51:27.365Z,15.63
2022-09-12T05:53:59.867Z,14.82
2022-09-12T05:56:28.477Z,14.48
2022-09-12T05:59:01.033Z,15.15
2022-09-12T06:01:29.009Z,14.60
2022-09-12T06:04:00.623Z,14.20
2022-09-12T06:06:28.558Z,14.43
2022-09-12T06:08:58.775Z,14.05
2022-09-12T06:11:28.745Z,15.02
2022-09-12T06:13:56.851Z,13.93
2022-09-12T06:16:26.027Z,14.10
2022-09-12T06:18:57.817Z,14.30
2022-09-12T06:21:26.430Z,14.52
2022-09-12T06:23:56.911Z,15.27
2022-09-12T06:26:25.563Z,16.45
2022-09-12T06:28:53.890Z,18.02
2022-09-12T06:31:23.449Z,17.70
2022-09-12T06:33:51.894Z,17.75
2022-09-12T06:36:21.250Z,17.10
2022-09-12T06:38:51.157Z,18.95
2022-09-12T06:41:17.767Z,18.63
2022-09-12T06:43:44.358Z,18.70
2022-09-12T06:46:12.944Z,17.63
2022-09-12T06:48:46.768Z,17.35
2022-09-12T06:51:15.927Z,18.42
2022-09-12T06:53:44.197Z,17.83
2022-09-12T06:56:13.556Z,17.50
2022-09-12T06:58:40.974Z,17.65
2022-09-12T07:01:29.354Z,18.38
2022-09-12T07:04:00.237Z,17.85
2022-09-12T07:06:31.985Z,18.10
2022-09-12T07:09:00.014Z,17.88
2022-09-12T07:11:28.538Z,18.77
2022-09-12T07:13:56.436Z,18.42
2022-09-12T07:16:23.732Z,17.52
2022-09-12T07:18:51.920Z,18.23
2022-09-12T07:21:18.819Z,19.02
2022-09-12T07:23:45.576Z,17.00
2022-09-12T07:26:14.714Z,17.08
2022-09-12T07:28:41.639Z,19.25
2022-09-12T07:31:09.875Z,16.92
2022-09-12T07:33:38.279Z,17.58
2022-09-12T07:36:07.106Z,18.83
2022-09-12T07:38:33.989Z,18.05
2022-09-12T07:41:01.636Z,18.33
2022-09-12T07:43:28.346Z,17.30
2022-09-12T07:45:58.017Z,18.00
2022-09-12T07:48:24.998Z,16.80
2022-09-12T07:51:02.005Z,19.35
2022-09-12T07:53:32.915Z,17.17
2022-09-12T07:56:00.044Z,15.77
2022-09-12T07:58:26.806Z,19.67
2022-09-12T08:00:53.542Z,16.02
2022-09-12T08:03:21.134Z,18.02
2022-09-12T08:05:47.974Z,16.77
2022-09-12T08:08:15.198Z,17.25
2022-09-12T08:10:41.849Z,17.88
2022-09-12T08:13:10.732Z,18.10
2022-09-12T08:15:37.627Z,16.70
2022-09-12T08:18:04.313Z,17.77
2022-09-12T08:20:30.994Z,16.75
2022-09-12T08:22:57.579Z,16.10
2022-09-12T08:25:26.659Z,15.65
2022-09-12T08:27:53.293Z,18.10
2022-09-12T08:30:20.133Z,16.15
2022-09-12T08:32:47.375Z,15.93
2022-09-12T08:35:15.187Z,16.40
2022-09-12T08:37:43.797Z,15.48
2022-09-12T08:40:17.373Z,14.80
2022-09-12T08:43:15.042Z,16.35
2022-09-12T08:45:53.541Z,16.48
2022-09-12T08:48:20.341Z,14.30
2022-09-12T08:50:49.897Z,13.93
2022-09-12T08:53:21.636Z,15.02
2022-09-12T08:55:59.070Z,15.25
2022-09-12T08:58:27.843Z,13.23
2022-09-12T09:01:09.397Z,13.05
2022-09-12T09:03:54.471Z,14.63
2022-09-12T09:06:54.810Z,12.98
2022-09-12T09:09:54.621Z,14.75
2022-09-12T09:12:55.365Z,13.18
2022-09-12T09:15:41.138Z,12.70
2022-09-12T09:18:12.208Z,13.07
2022-09-12T09:20:57.793Z,14.32
2022-09-12T09:23:30.974Z,12.68
2022-09-12T09:26:18.261Z,13.70
2022-09-12T09:28:47.269Z,12.20
2022-09-12T09:31:22.277Z,12.30
2022-09-12T09:33:51.264Z,12.05
2022-09-12T09:36:20.797Z,14.57
2022-09-12T09:38:55.485Z,13.32
2022-09-12T09:41:46.283Z,13.35
2022-09-12T09:44:13.142Z,12.20
2022-09-12T09:46:39.819Z,12.82
2022-09-12T09:49:07.099Z,10.00
2022-09-12T09:51:39.114Z,10.10
2022-09-12T09:54:37.250Z,10.43
2022-09-12T09:57:05.294Z,11.55
2022-09-12T09:59:34.316Z,11.45
2022-09-12T10:02:08.563Z,11.38
2022-09-12T10:04:42.205Z,10.57
2022-09-12T10:07:19.427Z,10.48
2022-09-12T10:10:11.646Z,10.45
2022-09-12T10:12:39.589Z,10.50
2022-09-12T10:15:23.765Z,10.15
2022-09-12T10:17:51.553Z,10.65
2022-09-12T10:20:41.072Z,9.15
2022-09-12T10:23:37.423Z,10.43
2022-09-12T10:26:10.239Z,11.02
2022-09-12T10:28:40.530Z,9.05
2022-09-12T10:31:15.320Z,10.48
2022-09-12T10:37:06.797Z,8.80
2022-09-12T10:39:34.846Z,9.73
2022-09-12T10:42:02.139Z,9.57
2022-09-12T10:44:30.912Z,8.30
2022-09-12T10:46:58.691Z,10.38
2022-09-12T10:49:51.563Z,9.20
2022-09-12T10:52:23.288Z,9.63
2022-09-12T10:54:51.241Z,9.95
2022-09-12T10:57:17.717Z,9.10
2022-09-12T10:59:53.382Z,8.50
2022-09-12T11:02:52.254Z,8.25
2022-09-12T11:05:28.168Z,7.57
2022-09-12T11:08:23.672Z,9.88
2022-09-12T11:11:10.090Z,8.27
2022-09-12T11:13:44.555Z,9.05
2022-09-12T11:17:27.629Z,8.43
2022-09-12T11:20:30.357Z,8.85
2022-09-12T11:23:29.642Z,8.40
2022-09-12T11:26:18.928Z,8.27
2022-09-12T11:28:56.311Z,7.78
2022-09-12T11:31:31.857Z,8.30
2022-09-12T11:34:00.326Z,7.68
2022-09-12T11:36:34.156Z,7.45
2022-09-12T11:39:21.319Z,8.32
2022-09-12T11:41:51.689Z,7.90
2022-09-12T11:44:22.347Z,8.02
2022-09-12T11:46:51.922Z,8.00
2022-09-12T11:49:35.570Z,7.50
2022-09-12T11:52:24.382Z,6.85
2022-09-12T11:55:03.766Z,7.50
2022-09-12T11:57:40.801Z,7.40
2022-09-12T12:00:20.585Z,7.40
2022-09-12T12:03:02.750Z,7.95
2022-09-12T12:05:35.766Z,7.80
2022-09-12T12:08:05.362Z,7.95
2022-09-12T12:10:40.811Z,7.00
2022-09-12T12:13:19.561Z,6.80
2022-09-12T12:15:48.969Z,6.82
2022-09-12T12:18:29.351Z,7.20
2022-09-12T12:20:57.034Z,7.63
2022-09-12T12:23:34.139Z,7.53
2022-09-12T12:26:03.496Z,7.07
2022-09-12T12:28:52.870Z,8.13
2022-09-12T12:31:19.577Z,7.88
2022-09-12T12:33:46.075Z,7.85
2022-09-12T12:36:38.557Z,7.35
2022-09-12T12:39:53.864Z,7.07
2022-09-12T12:42:32.755Z,6.68
2022-09-12T12:45:20.070Z,7.15
2022-09-12T12:48:05.007Z,6.95
2022-09-12T12:50:34.402Z,6.68
2022-09-12T12:53:07.201Z,7.35
2022-09-12T12:55:38.557Z,7.32
2022-09-12T12:58:07.114Z,6.57
2022-09-12T13:00:35.608Z,6.72
2022-09-12T13:03:06.435Z,6.88
2022-09-12T13:05:48.957Z,6.00
2022-09-12T13:08:18.156Z,7.07
2022-09-12T13:10:58.505Z,6.50
2022-09-12T13:13:32.993Z,6.38
2022-09-12T13:16:00.769Z,5.80
2022-09-12T13:18:53.934Z,6.72
2022-09-12T13:21:22.137Z,6.00
2022-09-12T13:24:02.789Z,7.20
2022-09-12T13:26:41.811Z,5.93
2022-09-12T13:29:25.662Z,6.40
2022-09-12T13:31:56.499Z,6.97
2022-09-12T13:34:33.237Z,6.40
2022-09-12T13:37:35.387Z,6.60
2022-09-12T13:40:18.309Z,6.03
2022-09-12T13:45:28.887Z,5.88
2022-09-12T13:47:58.999Z,6.18
2022-09-12T13:50:33.582Z,7.03
2022-09-12T13:53:42.458Z,6.05
2022-09-12T13:56:16.310Z,5.50
2022-09-12T13:58:53.133Z,6.22
2022-09-12T14:01:20.622Z,6.32
2022-09-12T14:04:14.342Z,6.47
2022-09-12T14:06:50.940Z,6.45
2022-09-12T14:09:26.181Z,6.30
2022-09-12T14:11:53.618Z,7.15
2022-09-12T14:14:33.362Z,6.18
2022-09-12T14:17:00.479Z,6.00
2022-09-12T14:19:29.078Z,6.45
2022-09-12T14:21:57.330Z,6.13
2022-09-12T14:24:24.222Z,6.20
2022-09-12T14:26:52.861Z,6.07
2022-09-12T14:29:19.906Z,6.18
2022-09-12T14:31:46.775Z,6.00
2022-09-12T14:34:17.783Z,6.47
2022-09-12T14:36:46.586Z,6.53
2022-09-12T14:39:19.712Z,5.72
2022-09-12T14:41:46.586Z,5.60
2022-09-12T14:44:24.218Z,5.18
2022-09-12T14:46:52.327Z,6.22
2022-09-12T14:49:31.506Z,6.03
2022-09-12T14:52:00.986Z,5.82
2022-09-12T14:54:28.538Z,5.60
2022-09-12T14:56:56.019Z,5.22
2022-09-12T14:59:36.146Z,6.00
2022-09-12T15:02:17.347Z,5.60
2022-09-12T15:04:47.998Z,5.03
2022-09-12T15:07:32.570Z,5.38
2022-09-12T15:10:03.610Z,5.22
2022-09-12T15:12:32.318Z,6.18
2022-09-12T15:15:07.786Z,5.05
2022-09-12T15:17:35.414Z,5.20
2022-09-12T15:20:02.506Z,5.78
2022-09-12T15:22:30.991Z,5.75
2022-09-12T15:24:58.734Z,5.72
2022-09-12T15:27:26.738Z,5.38
2022-09-12T15:29:54.492Z,6.13
2022-09-12T15:32:26.306Z,5.43
2022-09-12T15:34:53.472Z,5.40
2022-09-12T15:37:21.756Z,5.32
2022-09-12T15:39:49.109Z,5.82
2022-09-12T15:42:17.120Z,5.35
2022-09-12T15:44:43.892Z,5.60
2022-09-12T15:47:13.334Z,5.28
2022-09-12T15:49:40.735Z,5.40
2022-09-12T15:52:15.498Z,6.35
2022-09-12T15:54:43.369Z,5.35
2022-09-12T15:57:10.390Z,5.10
2022-09-12T15:59:38.239Z,5.00
2022-09-12T16:02:05.002Z,5.30
2022-09-12T16:04:31.711Z,5.45
2022-09-12T16:06:58.468Z,5.20
2022-09-12T16:09:25.212Z,5.20
2022-09-12T16:11:52.280Z,5.60
2022-09-12T16:14:23.306Z,5.10
2022-09-12T16:16:59.783Z,5.38
2022-09-12T16:19:26.479Z,5.50
2022-09-12T16:21:53.173Z,5.50
2022-09-12T16:24:19.833Z,5.20
2022-09-12T16:26:46.479Z,6.05
2022-09-12T16:29:14.309Z,5.57
2022-09-12T16:31:41.036Z,5.32
2022-09-12T16:34:07.783Z,5.40
2022-09-12T16:36:34.521Z,5.45
2022-09-12T16:39:01.239Z,5.95
2022-09-12T16:41:28.211Z,5.55
2022-09-12T16:43:55.292Z,6.00
2022-09-12T16:46:28.580Z,6.15
2022-09-12T16:48:57.014Z,5.22
2022-09-12T16:51:27.169Z,6.38
2022-09-12T16:53:55.069Z,5.85
2022-09-12T16:56:22.458Z,5.65
2022-09-12T16:58:49.258Z,6.57
2022-09-12T17:01:23.316Z,6.32
2022-09-12T17:03:57.760Z,6.97
2022-09-12T17:06:25.415Z,6.70
2022-09-12T17:08:53.119Z,7.03
2022-09-12T17:11:25.495Z,6.25
2022-09-12T17:14:04.571Z,6.57
2022-09-12T17:16:33.160Z,7.40
2022-09-12T17:18:59.801Z,6.10
2022-09-12T17:21:26.485Z,6.50
2022-09-12T17:23:53.134Z,6.53
2022-09-12T17:26:20.718Z,5.90
2022-09-12T17:28:48.103Z,6.13
2022-09-12T17:31:15.335Z,6.63
2022-09-12T17:33:42.270Z,5.82
2022-09-12T17:36:16.475Z,6.60
2022-09-12T17:38:44.973Z,6.45
2022-09-12T17:41:17.648Z,6.45
2022-09-12T17:46:20.684Z,6.25
2022-09-12T17:48:55.235Z,6.05
2022-09-12T17:51:24.902Z,6.10
2022-09-12T17:54:18.735Z,6.53
2022-09-12T17:56:48.907Z,6.72
2022-09-12T17:59:19.106Z,6.40
2022-09-12T18:02:04.420Z,6.70
2022-09-12T18:04:31.242Z,6.28
2022-09-12T18:07:00.212Z,6.40
2022-09-12T18:09:27.884Z,6.75
2022-09-12T18:11:54.860Z,6.20
2022-09-12T18:14:21.968Z,7.15
2022-09-12T18:16:49.169Z,6.68
2022-09-12T18:19:16.448Z,7.03
2022-09-12T18:21:43.320Z,7.15
2022-09-12T18:24:10.549Z,6.95
2022-09-12T18:26:37.568Z,6.65
2022-09-12T18:29:04.374Z,7.28
2022-09-12T18:31:31.265Z,6.38
2022-09-12T18:33:59.789Z,7.22
2022-09-12T18:36:27.098Z,9.35
2022-09-12T18:38:53.980Z,7.93
2022-09-12T18:41:24.798Z,7.40
2022-09-12T18:43:59.306Z,7.72
2022-09-12T18:46:27.148Z,8.32
2022-09-12T18:48:57.880Z,7.97
2022-09-12T18:51:33.461Z,8.48
2022-09-12T18:54:13.034Z,7.38
2022-09-12T18:56:43.439Z,7.68
2022-09-12T18:59:12.759Z,7.50
2022-09-12T19:01:39.829Z,9.27
2022-09-12T19:04:07.619Z,7.90
2022-09-12T19:06:39.403Z,8.70
2022-09-12T19:09:08.163Z,8.18
2022-09-12T19:11:37.305Z,7.82
2022-09-12T19:14:05.283Z,8.52
2022-09-12T19:16:32.231Z,8.13
2022-09-12T19:18:59.443Z,8.35
2022-09-12T19:21:29.206Z,7.78
2022-09-12T19:23:58.082Z,8.20
2022-09-12T19:26:24.971Z,8.57
2022-09-12T19:28:52.097Z,8.45
2022-09-12T19:31:20.149Z,9.18
2022-09-12T19:33:47.299Z,8.55
2022-09-12T19:36:41.314Z,8.82
2022-09-12T19:39:04.693Z,8.00
2022-09-12T19:41:31.475Z,8.30
2022-09-12T19:43:59.061Z,9.27
2022-09-12T19:46:26.886Z,7.82
2022-09-12T19:48:54.077Z,8.02
2022-09-12T19:51:22.317Z,9.07
2022-09-12T19:53:50.209Z,8.82
2022-09-12T19:56:17.022Z,8.55
2022-09-12T19:58:45.732Z,7.97
2022-09-12T20:01:29.736Z,8.27
2022-09-12T20:03:57.501Z,8.57
2022-09-12T20:06:24.863Z,8.43
2022-09-12T20:08:51.496Z,8.95
2022-09-12T20:11:19.840Z,7.97
2022-09-12T20:13:47.052Z,8.25
2022-09-12T20:16:22.733Z,7.82
2022-09-12T20:18:54.919Z,7.95
2022-09-12T20:21:25.239Z,8.82
2022-09-12T20:23:52.259Z,8.85
2022-09-12T20:26:20.203Z,7.60
2022-09-12T20:28:47.521Z,8.18
2022-09-12T20:31:15.462Z,8.68
2022-09-12T20:33:42.375Z,8.18
2022-09-12T20:36:14.915Z,8.38
2022-09-12T20:38:46.253Z,8.93
2022-09-12T20:41:12.923Z,7.95
2022-09-12T20:43:40.063Z,7.65
2022-09-12T20:46:10.998Z,7.95
2022-09-12T20:48:38.365Z,7.43
2022-09-12T20:51:05.714Z,8.68
2022-09-12T20:53:35.076Z,8.50
2022-09-12T20:56:02.962Z,8.93
2022-09-12T20:58:29.673Z,8.38
2022-09-12T21:00:56.507Z,8.27
2022-09-12T21:03:23.241Z,8.68
2022-09-12T21:05:49.928Z,9.15
2022-09-12T21:08:16.789Z,8.50
2022-09-12T21:10:44.446Z,7.78
2022-09-12T21:13:12.208Z,8.20
2022-09-12T21:15:39.631Z,8.00
2022-09-12T21:18:06.985Z,8.68
2022-09-12T21:20:34.042Z,9.07
2022-09-12T21:23:00.744Z,9.07
2022-09-12T21:25:28.987Z,7.47
2022-09-12T21:27:55.689Z,8.23
2022-09-12T21:30:22.510Z,8.52
2022-09-12T21:32:49.211Z,8.63
2022-09-12T21:35:16.008Z,9.05
2022-09-12T21:37:42.688Z,8.30
2022-09-12T21:40:09.652Z,8.23
2022-09-12T21:42:36.873Z,8.48
2022-09-12T21:45:03.852Z,8.00
2022-09-12T21:47:30.893Z,8.57
2022-09-12T21:49:58.362Z,8.32
2022-09-12T21:52:25.175Z,8.52
2022-09-12T21:54:51.837Z,8.07
2022-09-12T21:57:18.472Z,8.40
2022-09-12T21:59:45.202Z,8.52
2022-09-12T22:02:12.353Z,8.70
2022-09-12T22:04:39.125Z,8.63
2022-09-12T22:07:05.963Z,9.25
2022-09-12T22:09:34.283Z,9.15
2022-09-12T22:12:02.172Z,8.40
2022-09-12T22:14:29.401Z,9.10
2022-09-12T22:16:56.695Z,9.65
2022-09-12T22:19:23.485Z,8.63
2022-09-12T22:22:08.794Z,9.30
2022-09-12T22:24:35.464Z,8.88
2022-09-12T22:27:03.998Z,9.13
2022-09-12T22:29:30.982Z,9.20
2022-09-12T22:31:59.025Z,9.13
2022-09-12T22:34:26.599Z,8.70
2022-09-12T22:36:53.369Z,9.50
2022-09-12T22:39:20.039Z,8.77
2022-09-12T22:41:46.744Z,9.20
2022-09-12T22:44:13.505Z,9.85
2022-09-12T22:46:40.445Z,10.98
2022-09-12T22:49:07.421Z,9.65
2022-09-12T22:51:34.155Z,9.18
2022-09-12T22:54:00.893Z,9.38
2022-09-12T22:56:27.577Z,9.02
2022-09-12T22:58:54.345Z,8.80
2022-09-12T23:01:21.118Z,9.18
2022-09-12T23:03:47.934Z,9.30
2022-09-12T23:06:14.734Z,9.10
2022-09-12T23:08:41.582Z,9.20
2022-09-12T23:11:12.822Z,8.65
2022-09-12T23:13:42.079Z,8.50
2022-09-12T23:16:11.958Z,8.80
2022-09-12T23:18:39.152Z,9.20
2022-09-12T23:21:07.833Z,9.45
2022-09-12T23:23:35.415Z,10.10
2022-09-12T23:26:06.479Z,9.15
2022-09-12T23:28:34.637Z,8.98
2022-09-12T23:31:01.813Z,9.18
2022-09-12T23:33:29.604Z,9.05
2022-09-12T23:36:03.391Z,8.52
2022-09-12T23:38:30.713Z,9.50
2022-09-12T23:40:58.106Z,10.35
2022-09-12T23:43:25.050Z,9.27
2022-09-12T23:45:51.761Z,9.50
2022-09-12T23:48:18.710Z,10.02
2022-09-12T23:50:46.627Z,9.25
2022-09-12T23:53:14.739Z,10.73
2022-09-12T23:55:42.149Z,9.48
2022-09-12T23:58:09.110Z,10.18
